createdAt,value
2018-04-23T00:01:02.821Z,5.73
2018-04-23T00:03:31.415Z,5.77
2018-04-23T00:06:00.091Z,6.50
2018-04-23T00:08:28.437Z,6.40
2018-04-23T00:10:56.929Z,5.57
2018-04-23T00:13:25.307Z,5.83
2018-04-23T00:15:54.004Z,5.93
2018-04-23T00:18:22.648Z,5.30
2018-04-23T00:20:51.512Z,6.47
2018-04-23T00:23:19.992Z,5.73
2018-04-23T00:25:49.024Z,6.07
2018-04-23T00:28:17.763Z,5.60
2018-04-23T00:30:46.132Z,5.73
2018-04-23T00:33:14.506Z,6.50
2018-04-23T00:35:42.942Z,6.07
2018-04-23T00:38:12.122Z,6.00
2018-04-23T00:40:41.140Z,6.67
2018-04-23T00:43:09.488Z,5.67
2018-04-23T00:45:38.356Z,5.80
2018-04-23T00:48:07.084Z,5.53
2018-04-23T00:50:35.454Z,5.80
2018-04-23T00:53:15.949Z,5.33
2018-04-23T00:55:44.812Z,4.53
2018-04-23T00:58:13.162Z,5.10
2018-04-23T01:00:41.504Z,4.70
2018-04-23T01:03:09.858Z,5.57
2018-04-23T01:05:38.740Z,5.07
2018-04-23T01:08:07.905Z,4.90
2018-04-23T01:10:37.045Z,5.63
2018-04-23T01:13:05.814Z,5.17
2018-04-23T01:15:34.163Z,4.50
2018-04-23T01:18:03.618Z,4.33
2018-04-23T01:20:31.999Z,4.70
2018-04-23T01:23:00.347Z,5.00
2018-04-23T01:25:28.734Z,4.63
2018-04-23T01:27:57.307Z,4.50
2018-04-23T01:30:26.044Z,5.00
2018-04-23T01:32:55.280Z,4.50
2018-04-23T01:35:24.436Z,5.27
2018-04-23T01:37:53.041Z,4.87
2018-04-23T01:40:21.483Z,5.47
2018-04-23T01:42:49.827Z,5.00
2018-04-23T01:45:18.725Z,5.50
2018-04-23T01:47:47.132Z,5.47
2018-04-23T01:50:15.633Z,5.23
2018-04-23T01:52:44.197Z,5.43
2018-04-23T01:55:12.693Z,4.70
2018-04-23T01:57:41.083Z,5.13
2018-04-23T02:00:09.774Z,5.23
2018-04-23T02:02:38.131Z,4.73
2018-04-23T02:05:06.556Z,5.07
2018-04-23T02:07:35.013Z,5.00
2018-04-23T02:10:03.375Z,4.97
2018-04-23T02:12:31.870Z,4.20
2018-04-23T02:15:00.525Z,4.90
2018-04-23T02:17:29.879Z,4.30
2018-04-23T02:19:58.225Z,4.50
2018-04-23T02:22:26.567Z,4.67
2018-04-23T02:24:55.587Z,4.23
2018-04-23T02:27:25.194Z,4.40
2018-04-23T02:29:53.532Z,4.23
2018-04-23T02:32:22.161Z,4.40
2018-04-23T02:34:51.348Z,4.40
2018-04-23T02:37:20.538Z,4.27
2018-04-23T02:39:49.338Z,3.60
2018-04-23T02:42:17.977Z,4.27
2018-04-23T02:44:46.408Z,3.97
2018-04-23T02:47:14.830Z,3.90
2018-04-23T02:49:43.185Z,4.70
2018-04-23T02:52:11.737Z,4.63
2018-04-23T02:54:41.163Z,4.43
2018-04-23T02:57:10.773Z,4.40
2018-04-23T02:59:39.262Z,4.13
2018-04-23T03:02:08.837Z,5.10
2018-04-23T03:04:37.536Z,4.93
2018-04-23T03:07:06.676Z,5.50
2018-04-23T03:09:35.170Z,5.13
2018-04-23T03:12:03.543Z,5.73
2018-04-23T03:14:31.897Z,5.60
2018-04-23T03:17:00.559Z,9.37
2018-04-23T03:19:29.199Z,6.07
2018-04-23T03:21:57.906Z,5.63
2018-04-23T03:24:26.356Z,5.47
2018-04-23T03:26:54.710Z,5.13
2018-04-23T03:29:23.634Z,4.93
2018-04-23T03:31:52.932Z,5.00
2018-04-23T03:34:21.422Z,5.33
2018-04-23T03:36:49.987Z,5.33
2018-04-23T03:39:19.189Z,5.27
2018-04-23T03:41:48.032Z,5.27
2018-04-23T03:44:17.086Z,4.97
2018-04-23T03:46:46.091Z,5.07
2018-04-23T03:49:14.597Z,4.83
2018-04-23T03:51:42.964Z,5.50
2018-04-23T03:54:11.369Z,5.47
2018-04-23T03:56:40.224Z,5.10
2018-04-23T03:59:09.016Z,4.83
2018-04-23T04:01:37.716Z,54.63
2018-04-23T04:04:06.613Z,25.30
2018-04-23T04:06:35.233Z,25.50
2018-04-23T04:09:04.322Z,6.13
2018-04-23T04:11:32.796Z,5.50
2018-04-23T04:14:13.136Z,5.17
2018-04-23T04:16:54.304Z,5.27
2018-04-23T04:19:22.689Z,5.37
2018-04-23T04:21:51.277Z,4.83
2018-04-23T04:24:19.773Z,5.90
2018-04-23T04:26:49.173Z,5.67
2018-04-23T04:29:17.559Z,5.60
2018-04-23T04:31:46.473Z,5.20
2018-04-23T04:34:15.476Z,5.70
2018-04-23T04:36:43.907Z,5.30
2018-04-23T04:39:12.262Z,5.30
2018-04-23T04:41:40.686Z,4.90
2018-04-23T04:44:09.035Z,5.07
2018-04-23T04:46:37.396Z,4.20
2018-04-23T04:49:06.231Z,4.60
2018-04-23T04:51:34.831Z,4.50
2018-04-23T04:54:03.342Z,4.47
2018-04-23T04:56:31.980Z,5.47
2018-04-23T04:59:00.346Z,7.13
2018-04-23T05:01:29.133Z,5.00
2018-04-23T05:03:57.528Z,4.20
2018-04-23T05:06:26.028Z,4.37
2018-04-23T05:08:54.568Z,4.50
2018-04-23T05:11:22.960Z,4.60
2018-04-23T05:13:51.454Z,4.03
2018-04-23T05:16:19.793Z,3.77
2018-04-23T05:18:48.228Z,4.20
2018-04-23T05:21:19.147Z,3.77
2018-04-23T05:23:47.548Z,4.17
2018-04-23T05:26:16.027Z,4.67
2018-04-23T05:28:44.459Z,4.37
2018-04-23T05:31:13.269Z,4.30
2018-04-23T05:33:41.897Z,4.10
2018-04-23T05:36:10.364Z,4.63
2018-04-23T05:38:38.716Z,3.80
2018-04-23T05:41:07.057Z,4.47
2018-04-23T05:43:36.972Z,36.57
2018-04-23T05:46:05.760Z,5.30
2018-04-23T05:48:34.120Z,4.73
2018-04-23T05:51:03.014Z,4.20
2018-04-23T05:53:31.405Z,4.27
2018-04-23T05:56:00.065Z,3.10
2018-04-23T05:58:28.983Z,2.80
2018-04-23T06:00:57.354Z,3.37
2018-04-23T06:03:25.782Z,3.37
2018-04-23T06:05:54.148Z,2.80
2018-04-23T06:08:22.569Z,2.57
2018-04-23T06:10:51.267Z,2.67
2018-04-23T06:13:19.673Z,2.37
2018-04-23T06:15:48.030Z,2.30
2018-04-23T06:18:16.418Z,3.53
2018-04-23T06:20:44.759Z,2.70
2018-04-23T06:23:13.103Z,2.53
2018-04-23T06:25:41.623Z,3.30
2018-04-23T06:28:10.088Z,2.30
2018-04-23T06:30:38.468Z,1.90
2018-04-23T06:33:07.032Z,2.17
2018-04-23T06:35:35.383Z,2.00
2018-04-23T06:38:03.746Z,2.43
2018-04-23T06:40:32.096Z,1.90
2018-04-23T06:43:00.450Z,2.40
2018-04-23T06:45:29.720Z,2.60
2018-04-23T06:47:58.574Z,2.20
2018-04-23T06:50:27.744Z,2.07
2018-04-23T06:52:56.555Z,8.17
2018-04-23T06:55:25.307Z,2.53
2018-04-23T06:57:53.652Z,2.03
2018-04-23T07:00:22.104Z,2.07
2018-04-23T07:02:50.473Z,5.17
2018-04-23T07:05:18.827Z,2.33
2018-04-23T07:07:47.233Z,3.37
2018-04-23T07:10:15.975Z,3.10
2018-04-23T07:12:44.343Z,2.40
2018-04-23T07:15:12.964Z,2.70
2018-04-23T07:17:42.075Z,2.20
2018-04-23T07:20:10.975Z,2.43
2018-04-23T07:22:39.332Z,2.20
2018-04-23T07:25:07.687Z,2.00
2018-04-23T07:27:36.035Z,2.00
2018-04-23T07:30:04.390Z,2.60
2018-04-23T07:32:32.735Z,2.43
2018-04-23T07:35:01.752Z,2.90
2018-04-23T07:37:30.408Z,3.00
2018-04-23T07:39:58.824Z,2.83
2018-04-23T07:42:27.545Z,3.30
2018-04-23T07:44:56.516Z,2.63
2018-04-23T07:47:24.937Z,3.00
2018-04-23T07:49:53.820Z,2.20
2018-04-23T07:52:22.352Z,2.90
2018-04-23T07:54:50.878Z,2.50
2018-04-23T07:57:19.241Z,2.47
2018-04-23T07:59:47.711Z,2.70
2018-04-23T08:02:16.065Z,2.60
2018-04-23T08:04:44.440Z,2.43
2018-04-23T08:07:12.966Z,2.70
2018-04-23T08:09:42.236Z,3.30
2018-04-23T08:12:10.614Z,3.03
2018-04-23T08:14:39.023Z,3.00
2018-04-23T08:17:07.777Z,3.20
2018-04-23T08:19:36.126Z,2.73
2018-04-23T08:22:05.114Z,2.73
2018-04-23T08:24:34.419Z,2.80
2018-04-23T08:27:02.864Z,3.37
2018-04-23T08:29:31.300Z,3.23
2018-04-23T08:31:59.673Z,2.60
2018-04-23T08:34:28.043Z,3.00
2018-04-23T08:36:56.859Z,3.40
2018-04-23T08:39:25.286Z,2.57
2018-04-23T08:41:53.646Z,3.33
2018-04-23T08:44:22.798Z,2.97
2018-04-23T08:46:51.318Z,3.20
2018-04-23T08:49:19.906Z,3.03
2018-04-23T08:51:48.307Z,2.90
2018-04-23T08:54:16.926Z,2.87
2018-04-23T08:56:45.281Z,2.33
2018-04-23T08:59:13.960Z,2.63
2018-04-23T09:01:43.419Z,3.00
2018-04-23T09:04:12.030Z,2.53
2018-04-23T09:06:40.431Z,2.57
2018-04-23T09:09:08.775Z,2.27
2018-04-23T09:11:37.119Z,2.50
2018-04-23T09:14:07.303Z,2.90
2018-04-23T09:16:36.014Z,2.60
2018-04-23T09:19:04.868Z,3.00
2018-04-23T09:21:33.400Z,2.60
2018-04-23T09:24:01.858Z,3.57
2018-04-23T09:26:30.524Z,4.40
2018-04-23T09:28:58.880Z,3.10
2018-04-23T09:31:28.039Z,2.90
2018-04-23T09:33:56.532Z,3.47
2018-04-23T09:36:25.839Z,5.60
2018-04-23T09:38:54.633Z,4.63
2018-04-23T09:41:24.074Z,2.70
2018-04-23T09:43:54.175Z,3.77
2018-04-23T09:46:23.180Z,3.53
2018-04-23T09:48:52.212Z,3.60
2018-04-23T09:51:20.641Z,4.27
2018-04-23T09:53:50.474Z,4.30
2018-04-23T09:56:18.819Z,3.30
2018-04-23T09:58:47.183Z,3.30
2018-04-23T10:01:21.027Z,2.93
2018-04-23T10:03:51.585Z,2.90
2018-04-23T10:06:20.745Z,2.43
2018-04-23T10:08:49.622Z,2.67
2018-04-23T10:11:18.661Z,2.73
2018-04-23T10:13:47.365Z,2.93
2018-04-23T10:16:15.975Z,2.73
2018-04-23T10:18:45.378Z,2.73
2018-04-23T10:21:14.054Z,3.00
2018-04-23T10:23:42.998Z,3.00
2018-04-23T10:26:11.507Z,2.70
2018-04-23T10:28:40.851Z,2.50
2018-04-23T10:31:09.829Z,2.50
2018-04-23T10:33:38.232Z,2.67
2018-04-23T10:36:06.592Z,3.20
2018-04-23T10:38:35.000Z,3.60
2018-04-23T10:41:04.567Z,4.07
2018-04-23T10:43:32.914Z,3.80
2018-04-23T10:46:01.857Z,3.73
2018-04-23T10:48:30.637Z,4.80
2018-04-23T10:50:59.373Z,4.13
2018-04-23T10:53:27.771Z,4.47
2018-04-23T10:55:56.258Z,7.90
2018-04-23T10:58:24.856Z,7.83
2018-04-23T11:00:53.443Z,6.00
2018-04-23T11:03:21.937Z,3.80
2018-04-23T11:05:50.354Z,3.80
2018-04-23T11:08:19.005Z,3.00
2018-04-23T11:10:48.717Z,3.73
2018-04-23T11:13:17.503Z,4.20
2018-04-23T11:15:46.408Z,3.30
2018-04-23T11:18:15.394Z,2.60
2018-04-23T11:20:44.243Z,2.50
2018-04-23T11:23:12.799Z,3.30
2018-04-23T11:25:41.144Z,2.73
2018-04-23T11:28:09.766Z,2.60
2018-04-23T11:30:39.088Z,2.73
2018-04-23T11:33:07.553Z,2.83
2018-04-23T11:35:36.166Z,2.93
2018-04-23T11:38:04.527Z,2.57
2018-04-23T11:40:32.885Z,2.83
2018-04-23T11:43:01.658Z,2.73
2018-04-23T11:45:30.007Z,2.47
2018-04-23T11:47:58.380Z,3.00
2018-04-23T11:50:26.735Z,2.50
2018-04-23T11:52:57.003Z,4.43
2018-04-23T11:55:25.556Z,2.97
2018-04-23T11:57:54.601Z,3.70
2018-04-23T12:00:22.977Z,3.50
2018-04-23T12:02:51.798Z,2.90
2018-04-23T12:05:20.382Z,3.70
2018-04-23T12:07:49.239Z,3.73
2018-04-23T12:10:20.175Z,3.80
2018-04-23T12:12:50.418Z,3.17
2018-04-23T12:15:19.446Z,4.10
2018-04-23T12:17:49.031Z,4.33
2018-04-23T12:20:23.287Z,3.77
2018-04-23T12:22:55.133Z,4.60
2018-04-23T12:25:30.231Z,4.40
2018-04-23T12:27:58.694Z,4.07
2018-04-23T12:30:29.104Z,4.70
2018-04-23T12:32:59.017Z,4.03
2018-04-23T12:35:27.926Z,5.17
2018-04-23T12:37:57.267Z,4.93
2018-04-23T12:40:26.416Z,5.07
2018-04-23T12:42:54.990Z,5.30
2018-04-23T12:45:23.359Z,5.27
2018-04-23T12:47:52.216Z,4.77
2018-04-23T12:50:21.219Z,4.17
2018-04-23T12:52:49.649Z,4.80
2018-04-23T12:55:18.323Z,5.00
2018-04-23T12:57:46.683Z,4.73
2018-04-23T13:00:15.393Z,4.77
2018-04-23T13:02:43.751Z,4.53
2018-04-23T13:05:12.223Z,5.17
2018-04-23T13:07:40.601Z,5.00
2018-04-23T13:10:09.209Z,4.37
2018-04-23T13:12:37.561Z,4.37
2018-04-23T13:15:05.917Z,5.07
2018-04-23T13:17:34.884Z,4.43
2018-04-23T13:20:03.744Z,4.80
2018-04-23T13:22:35.315Z,4.97
2018-04-23T13:25:04.265Z,5.07
2018-04-23T13:27:32.678Z,4.83
2018-04-23T13:30:04.736Z,5.17
2018-04-23T13:32:33.541Z,4.97
2018-04-23T13:35:02.667Z,5.27
2018-04-23T13:37:31.092Z,4.20
2018-04-23T13:39:59.984Z,10.77
2018-04-23T13:42:28.485Z,5.73
2018-04-23T13:44:57.617Z,5.10
2018-04-23T13:47:25.993Z,9.80
2018-04-23T13:49:54.402Z,9.00
2018-04-23T13:52:22.979Z,8.67
2018-04-23T13:54:52.445Z,6.37
2018-04-23T13:57:21.651Z,6.17
2018-04-23T13:59:51.232Z,4.90
2018-04-23T14:02:20.938Z,8.20
2018-04-23T14:04:49.708Z,6.03
2018-04-23T14:07:20.888Z,6.70
2018-04-23T14:09:52.517Z,6.13
2018-04-23T14:12:23.852Z,5.43
2018-04-23T14:14:53.935Z,6.40
2018-04-23T14:17:22.861Z,17.03
2018-04-23T14:19:51.443Z,17.10
2018-04-23T14:22:19.812Z,13.87
2018-04-23T14:24:48.684Z,7.10
2018-04-23T14:27:20.758Z,9.53
2018-04-23T14:32:23.964Z,5.30
2018-04-23T14:34:52.496Z,7.07
2018-04-23T14:37:20.953Z,8.33
2018-04-23T14:39:49.380Z,9.43
2018-04-23T14:42:17.768Z,10.00
2018-04-23T14:44:46.376Z,11.90
2018-04-23T14:47:15.138Z,12.40
2018-04-23T14:49:43.506Z,14.13
2018-04-23T14:52:11.865Z,14.63
2018-04-23T14:54:40.997Z,15.00
2018-04-23T14:57:09.392Z,15.47
2018-04-23T14:59:37.766Z,15.40
2018-04-23T15:02:06.189Z,16.70
2018-04-23T15:04:34.556Z,16.10
2018-04-23T15:07:02.933Z,16.10
2018-04-23T15:09:31.760Z,17.07
2018-04-23T15:12:00.477Z,16.33
2018-04-23T15:14:28.962Z,17.30
2018-04-23T15:16:57.688Z,18.40
2018-04-23T15:19:26.234Z,16.50
2018-04-23T15:21:55.470Z,17.83
2018-04-23T15:24:23.864Z,21.53
2018-04-23T15:26:52.247Z,17.83
2018-04-23T15:29:21.157Z,20.83
2018-04-23T15:31:49.744Z,18.90
2018-04-23T15:34:18.338Z,17.80
2018-04-23T15:36:46.743Z,14.03
2018-04-23T15:39:15.507Z,17.07
2018-04-23T15:41:43.962Z,17.00
2018-04-23T15:44:12.342Z,16.23
2018-04-23T15:46:40.842Z,16.63
2018-04-23T15:49:09.688Z,14.37
2018-04-23T15:51:38.881Z,13.07
2018-04-23T15:54:11.452Z,11.83
2018-04-23T15:56:39.848Z,12.07
2018-04-23T15:59:08.225Z,14.20
2018-04-23T16:01:37.086Z,12.33
2018-04-23T16:04:05.829Z,11.30
2018-04-23T16:06:34.522Z,12.63
2018-04-23T16:09:02.904Z,22.73
2018-04-23T16:11:31.316Z,11.50
2018-04-23T16:14:00.022Z,11.70
2018-04-23T16:16:28.906Z,11.20
2018-04-23T16:18:58.599Z,10.53
2018-04-23T16:21:26.976Z,12.47
2018-04-23T16:23:55.369Z,11.63
2018-04-23T16:26:23.919Z,11.73
2018-04-23T16:28:52.663Z,11.37
2018-04-23T16:31:21.596Z,11.10
2018-04-23T16:33:51.049Z,12.10
2018-04-23T16:36:19.545Z,10.83
2018-04-23T16:38:48.357Z,12.27
2018-04-23T16:41:18.120Z,12.23
2018-04-23T16:43:46.498Z,11.50
2018-04-23T16:46:19.547Z,26.77
2018-04-23T16:48:47.956Z,11.03
2018-04-23T16:51:16.534Z,12.43
2018-04-23T16:53:44.969Z,13.40
2018-04-23T16:56:13.700Z,13.40
2018-04-23T16:58:42.096Z,12.83
2018-04-23T17:01:10.511Z,12.17
2018-04-23T17:03:39.119Z,11.17
2018-04-23T17:06:07.524Z,11.90
2018-04-23T17:08:35.909Z,12.07
2018-04-23T17:11:04.431Z,14.20
2018-04-23T17:13:33.196Z,13.33
2018-04-23T17:16:03.015Z,12.67
2018-04-23T17:18:31.860Z,11.90
2018-04-23T17:21:00.693Z,13.90
2018-04-23T17:23:29.157Z,14.47
2018-04-23T17:25:58.147Z,14.33
2018-04-23T17:28:26.867Z,14.20
2018-04-23T17:30:55.639Z,14.20
2018-04-23T17:33:24.382Z,13.70
2018-04-23T17:35:52.798Z,16.93
2018-04-23T17:38:23.088Z,15.57
2018-04-23T17:40:52.241Z,15.17
2018-04-23T17:43:21.600Z,16.23
2018-04-23T17:45:52.079Z,16.23
2018-04-23T17:50:54.025Z,15.70
2018-04-23T17:53:23.372Z,16.83
2018-04-23T17:55:53.955Z,16.17
2018-04-23T17:58:23.565Z,13.33
2018-04-23T18:00:52.316Z,17.87
2018-04-23T18:03:26.137Z,24.30
2018-04-23T18:05:54.599Z,22.37
2018-04-23T18:08:23.340Z,24.67
2018-04-23T18:10:53.156Z,18.50
2018-04-23T18:13:25.479Z,23.20
2018-04-23T18:15:54.045Z,16.60
2018-04-23T18:18:23.268Z,16.03
2018-04-23T18:20:52.645Z,14.27
2018-04-23T18:23:21.129Z,15.10
2018-04-23T18:25:49.498Z,14.33
2018-04-23T18:28:17.890Z,20.10
2018-04-23T18:30:46.632Z,14.37
2018-04-23T18:33:16.553Z,13.10
2018-04-23T18:35:47.168Z,13.60
2018-04-23T18:38:15.965Z,14.57
2018-04-23T18:40:45.128Z,14.93
2018-04-23T18:43:14.758Z,13.20
2018-04-23T18:45:43.870Z,13.83
2018-04-23T18:48:12.267Z,14.90
2018-04-23T18:50:41.472Z,12.93
2018-04-23T18:53:10.847Z,11.70
2018-04-23T18:55:40.106Z,12.97
2018-04-23T18:58:08.454Z,13.03
2018-04-23T19:00:37.474Z,11.53
2018-04-23T19:03:06.224Z,11.17
2018-04-23T19:05:36.455Z,12.27
2018-04-23T19:08:05.287Z,11.67
2018-04-23T19:10:33.720Z,9.23
2018-04-23T19:13:02.106Z,10.23
2018-04-23T19:15:30.569Z,11.30
2018-04-23T19:18:05.457Z,9.47
2018-04-23T19:20:36.352Z,10.10
2018-04-23T19:23:04.880Z,10.83
2018-04-23T19:25:36.243Z,9.80
2018-04-23T19:28:07.357Z,9.43
2018-04-23T19:30:36.112Z,10.13
2018-04-23T19:33:05.351Z,10.87
2018-04-23T19:35:34.052Z,11.10
2018-04-23T19:38:02.550Z,8.20
2018-04-23T19:40:32.463Z,8.47
2018-04-23T19:43:01.355Z,9.33
2018-04-23T19:45:29.813Z,9.87
2018-04-23T19:48:00.253Z,9.63
2018-04-23T19:50:28.657Z,8.83
2018-04-23T19:52:57.136Z,9.17
2018-04-23T19:55:25.596Z,7.90
2018-04-23T19:57:53.984Z,7.47
2018-04-23T20:00:22.663Z,7.67
2018-04-23T20:02:51.225Z,8.00
2018-04-23T20:05:21.105Z,7.17
2018-04-23T20:07:52.880Z,7.50
2018-04-23T20:10:21.373Z,7.73
2018-04-23T20:12:50.483Z,7.53
2018-04-23T20:15:19.776Z,7.07
2018-04-23T20:17:48.357Z,6.80
2018-04-23T20:20:16.849Z,5.47
2018-04-23T20:22:45.589Z,8.17
2018-04-23T20:25:17.015Z,4.97
2018-04-23T20:27:45.610Z,5.77
2018-04-23T20:30:14.020Z,4.80
2018-04-23T20:32:42.719Z,4.63
2018-04-23T20:35:11.528Z,4.97
2018-04-23T20:37:40.217Z,4.40
2018-04-23T20:40:08.725Z,5.30
2018-04-23T20:42:37.184Z,4.50
2018-04-23T20:45:06.630Z,4.70
2018-04-23T20:47:36.060Z,4.40
2018-04-23T20:50:04.512Z,5.03
2018-04-23T20:52:32.872Z,4.87
2018-04-23T20:55:02.100Z,5.23
2018-04-23T20:57:31.873Z,4.80
2018-04-23T21:00:00.206Z,4.77
2018-04-23T21:02:28.829Z,3.57
2018-04-23T21:04:58.604Z,4.27
2018-04-23T21:07:27.668Z,5.43
2018-04-23T21:09:56.066Z,4.73
2018-04-23T21:12:24.675Z,4.20
2018-04-23T21:14:53.043Z,5.10
2018-04-23T21:17:22.352Z,5.17
2018-04-23T21:19:53.542Z,5.23
2018-04-23T21:22:22.691Z,4.87
2018-04-23T21:24:51.095Z,5.27
2018-04-23T21:27:19.459Z,4.93
2018-04-23T21:29:48.417Z,4.57
2018-04-23T21:32:16.935Z,5.57
2018-04-23T21:34:46.681Z,5.17
2018-04-23T21:37:15.042Z,5.63
2018-04-23T21:39:44.654Z,6.43
2018-04-23T21:42:13.558Z,4.70
2018-04-23T21:44:51.909Z,6.17
2018-04-23T21:47:21.268Z,4.30
2018-04-23T21:49:49.988Z,4.60
2018-04-23T21:52:19.403Z,4.03
2018-04-23T21:57:37.357Z,4.07
2018-04-23T22:00:05.792Z,3.77
2018-04-23T22:02:47.078Z,3.70
2018-04-23T22:05:15.621Z,8.53
2018-04-23T22:07:43.960Z,4.67
2018-04-23T22:10:12.316Z,4.40
2018-04-23T22:12:40.830Z,3.80
2018-04-23T22:15:09.577Z,5.00
2018-04-23T22:17:38.108Z,3.90
2018-04-23T22:20:11.263Z,4.73
2018-04-23T22:22:40.122Z,4.03
2018-04-23T22:25:08.702Z,3.80
2018-04-23T22:27:37.063Z,3.63
2018-04-23T22:30:05.437Z,4.33
2018-04-23T22:32:34.830Z,4.10
2018-04-23T22:35:03.978Z,4.30
2018-04-23T22:37:32.687Z,4.20
2018-04-23T22:40:01.324Z,4.67
2018-04-23T22:42:29.859Z,4.57
2018-04-23T22:44:58.542Z,3.50
2018-04-23T22:47:27.492Z,4.30
2018-04-23T22:49:56.126Z,4.33
2018-04-23T22:52:24.661Z,3.63
2018-04-23T22:54:54.468Z,3.70
2018-04-23T22:57:23.486Z,4.33
2018-04-23T22:59:52.231Z,3.73
2018-04-23T23:02:21.736Z,4.30
2018-04-23T23:04:50.199Z,3.90
2018-04-23T23:07:18.734Z,3.83
2018-04-23T23:09:47.905Z,4.23
2018-04-23T23:12:16.247Z,4.20
2018-04-23T23:14:45.705Z,5.43
2018-04-23T23:17:14.160Z,5.50
2018-04-23T23:19:43.075Z,6.30
2018-04-23T23:22:14.375Z,4.67
2018-04-23T23:24:43.243Z,4.10
2018-04-23T23:27:12.385Z,6.43
2018-04-23T23:29:41.288Z,6.43
2018-04-23T23:32:09.745Z,5.37
2018-04-23T23:34:38.513Z,6.77
2018-04-23T23:37:07.434Z,4.30
2018-04-23T23:39:35.827Z,10.63
2018-04-23T23:42:04.345Z,7.10
2018-04-23T23:44:32.691Z,4.87
2018-04-23T23:47:01.041Z,4.67
2018-04-23T23:49:29.407Z,6.10
2018-04-23T23:51:57.849Z,4.53
2018-04-23T23:54:26.193Z,5.20
2018-04-23T23:56:54.601Z,5.37
2018-04-23T23:59:23.144Z,5.27
